Time;durP1;ratioP1;P1;durP2;ratioP2;P2;SDS_P1;SDS_P2;PMS_P1;PMS_P2;Temp;Humidity;BMP_temperature;BMP_pressure;BME280_temperature;BME280_humidity;BME280_pressure;Samples;Min_cycle;Max_cycle;Signal;HPM_P1;HPM_P2
2022/10/25 00:02:13;;;;;;;30.10;9.07;;;13.90;99.90;;;;;;5069784;28;20481;-61
2022/10/25 00:04:39;;;;;;;17.77;6.27;;;13.90;99.90;;;;;;5070149;28;21013;-62
2022/10/25 00:07:07;;;;;;;21.00;8.20;;;13.70;99.90;;;;;;5074257;28;20501;-62
2022/10/25 00:09:34;;;;;;;16.80;4.10;;;13.60;99.90;;;;;;5071055;28;20482;-62
2022/10/25 00:12:01;;;;;;;16.83;6.53;;;14.20;99.90;;;;;;5071132;28;20973;-61
2022/10/25 00:14:28;;;;;;;12.07;5.43;;;13.50;99.90;;;;;;5076150;28;20478;-62
2022/10/25 00:16:54;;;;;;;13.43;4.70;;;13.50;99.90;;;;;;5070149;28;20482;-62
2022/10/25 00:19:21;;;;;;;17.37;6.70;;;13.50;99.90;;;;;;5066993;28;20477;-61
2022/10/25 00:21:48;;;;;;;9.97;5.30;;;13.40;99.90;;;;;;5083798;28;20722;-62
2022/10/25 00:24:16;;;;;;;17.07;5.53;;;13.40;99.90;;;;;;5073411;28;20486;-63
2022/10/25 00:26:43;;;;;;;8.03;3.47;;;13.40;99.90;;;;;;5074305;28;20497;-62
2022/10/25 00:29:10;;;;;;;17.03;8.60;;;13.30;99.90;;;;;;5078477;28;20473;-61
2022/10/25 00:31:37;;;;;;;14.03;4.13;;;13.20;99.90;;;;;;5057950;28;20489;-60
2022/10/25 00:34:04;;;;;;;14.47;7.30;;;13.30;99.90;;;;;;5052598;28;20846;-62
2022/10/25 00:36:31;;;;;;;12.90;7.07;;;13.20;99.90;;;;;;5070291;28;20843;-62
2022/10/25 00:38:58;;;;;;;18.87;5.70;;;13.20;99.90;;;;;;5070530;28;20769;-61
2022/10/25 00:41:29;;;;;;;11.20;6.63;;;13.20;99.90;;;;;;5071726;28;20474;-61
2022/10/25 00:43:57;;;;;;;12.50;6.00;;;13.10;99.90;;;;;;5070946;28;20847;-61
2022/10/25 00:46:28;;;;;;;19.17;8.97;;;13.10;99.90;;;;;;5070413;28;20486;-61
2022/10/25 00:49:00;;;;;;;10.67;6.27;;;13.10;99.90;;;;;;5063443;28;20474;-62
2022/10/25 00:51:33;;;;;;;22.47;4.70;;;13.10;99.90;;;;;;5074353;28;20828;-61
2022/10/25 00:54:00;;;;;;;14.60;6.77;;;13.20;99.90;;;;;;5069612;28;20478;-62
2022/10/25 00:56:31;;;;;;;17.87;9.23;;;;;;;;;;5064677;28;21097;-61
2022/10/25 00:59:01;;;;;;;11.33;4.53;;;13.40;99.90;;;;;;5082665;28;20478;-61
2022/10/25 01:01:28;;;;;;;11.90;5.93;;;13.40;99.90;;;;;;5075569;28;20549;-62
2022/10/25 01:03:59;;;;;;;19.40;7.03;;;13.60;99.90;;;;;;5072554;28;20870;-61
2022/10/25 01:06:31;;;;;;;20.90;10.83;;;13.70;99.90;;;;;;5070107;27;21586;-61
2022/10/25 01:08:58;;;;;;;10.10;5.70;;;13.80;99.90;;;;;;5075276;28;20487;-62
2022/10/25 01:11:25;;;;;;;17.97;5.33;;;13.90;99.90;;;;;;5073766;28;20481;-61
2022/10/25 02:20:58;;;;;;;10.90;5.50;;;14.20;99.90;;;;;;5024006;28;20465;-63
2022/10/25 02:23:26;;;;;;;15.77;7.67;;;14.20;99.90;;;;;;5070397;28;20482;-62
2022/10/25 02:25:54;;;;;;;16.90;5.70;;;14.20;99.90;;;;;;5074956;28;20483;-63
2022/10/25 02:28:23;;;;;;;14.20;5.90;;;14.20;99.90;;;;;;5071866;28;20483;-64
2022/10/25 02:30:52;;;;;;;23.07;5.93;;;14.20;99.90;;;;;;5072823;28;20716;-62
2022/10/25 02:33:19;;;;;;;26.73;8.23;;;14.10;99.90;;;;;;5072014;28;20485;-61
2022/10/25 02:36:04;;;;;;;7.47;4.00;;;14.10;99.90;;;;;;5074320;28;20486;-62
2022/10/25 02:38:33;;;;;;;30.37;6.40;;;14.10;99.90;;;;;;5072515;28;20489;-62
2022/10/25 02:41:02;;;;;;;10.67;4.37;;;14.10;99.90;;;;;;5074205;28;20470;-62
2022/10/25 02:43:28;;;;;;;11.67;5.60;;;14.20;99.90;;;;;;5073263;28;20924;-62
2022/10/25 02:45:55;;;;;;;19.30;5.53;;;14.20;99.90;;;;;;5070591;28;20479;-62
2022/10/25 02:48:22;;;;;;;14.17;7.40;;;14.20;99.90;;;;;;5068428;28;20965;-61
2022/10/25 02:50:49;;;;;;;14.90;6.17;;;14.20;99.90;;;;;;5072670;28;20489;-62
2022/10/25 02:53:15;;;;;;;16.43;7.67;;;14.30;99.90;;;;;;5073129;28;20482;-62
2022/10/25 02:55:43;;;;;;;14.37;5.63;;;14.30;99.90;;;;;;5073988;28;20483;-61
2022/10/25 02:58:10;;;;;;;15.20;8.20;;;14.40;99.90;;;;;;5072826;28;20474;-62
2022/10/25 03:00:37;;;;;;;32.03;3.90;;;14.50;99.90;;;;;;5074231;28;20845;-61
2022/10/25 03:03:04;;;;;;;16.03;8.57;;;14.50;99.90;;;;;;5072309;28;20863;-62
2022/10/25 03:05:30;;;;;;;15.53;6.87;;;14.40;99.90;;;;;;5077870;28;20470;-62
2022/10/25 03:07:57;;;;;;;14.50;4.60;;;14.40;99.90;;;;;;5071941;28;20493;-62
2022/10/25 03:10:24;;;;;;;23.20;6.47;;;14.40;99.90;;;;;;5070308;28;20490;-61
2022/10/25 03:12:52;;;;;;;10.17;5.70;;;14.30;99.90;;;;;;5073839;28;21017;-62
2022/10/25 03:15:18;;;;;;;21.73;7.30;;;14.30;99.90;;;;;;5072423;28;20489;-62
2022/10/25 03:17:45;;;;;;;11.50;4.47;;;14.30;99.90;;;;;;5070943;28;21029;-62
2022/10/25 03:20:12;;;;;;;15.60;9.10;;;14.30;99.90;;;;;;5072577;28;20486;-63
2022/10/25 03:22:38;;;;;;;9.67;3.70;;;14.30;99.90;;;;;;5079185;28;20971;-62
2022/10/25 03:25:06;;;;;;;16.17;8.00;;;14.20;99.90;;;;;;5075951;28;20482;-62
2022/10/25 03:27:33;;;;;;;14.27;6.03;;;14.30;99.90;;;;;;5075605;28;20595;-62
2022/10/25 03:30:01;;;;;;;10.90;3.77;;;15.80;99.90;;;;;;5077350;28;20497;-62
2022/10/25 03:32:28;;;;;;;16.60;5.53;;;14.40;99.90;;;;;;5078705;28;20906;-62
2022/10/25 03:34:54;;;;;;;17.27;6.13;;;15.10;99.90;;;;;;5077538;28;20955;-62
2022/10/25 03:37:21;;;;;;;16.37;7.07;;;14.30;99.90;;;;;;5073895;28;20962;-62
2022/10/25 03:39:48;;;;;;;18.93;5.67;;;14.20;99.90;;;;;;5076920;28;20485;-62
2022/10/25 03:42:15;;;;;;;21.97;9.43;;;14.20;99.90;;;;;;5076249;28;20782;-62
2022/10/25 03:44:41;;;;;;;15.73;4.47;;;14.20;99.90;;;;;;5077158;28;20474;-62
2022/10/25 03:47:09;;;;;;;22.10;10.30;;;14.20;99.90;;;;;;5075462;28;20646;-62
2022/10/25 03:49:36;;;;;;;9.60;4.83;;;14.20;99.90;;;;;;5076630;28;20603;-62
2022/10/25 03:52:04;;;;;;;28.60;6.47;;;13.20;99.90;;;;;;5075101;28;20940;-62
2022/10/25 03:54:31;;;;;;;14.47;6.30;;;14.30;99.90;;;;;;5076314;28;20536;-62
2022/10/25 03:56:58;;;;;;;16.63;6.57;;;14.20;99.90;;;;;;5075582;28;20811;-62
2022/10/25 03:59:25;;;;;;;13.60;4.83;;;14.20;99.90;;;;;;5076523;28;20844;-62
2022/10/25 04:01:52;;;;;;;11.13;5.17;;;;;;;;;;5076678;28;20489;-61
2022/10/25 04:04:20;;;;;;;17.93;8.93;;;14.30;99.90;;;;;;5076196;28;20490;-62
2022/10/25 04:06:47;;;;;;;13.70;4.40;;;14.30;99.90;;;;;;5076090;28;20770;-62
2022/10/25 04:09:14;;;;;;;25.03;9.43;;;14.40;99.90;;;;;;5073188;28;20489;-61
2022/10/25 04:11:41;;;;;;;37.60;6.47;;;;;;;;;;5076855;28;20482;-63
2022/10/25 04:14:08;;;;;;;23.87;8.77;;;14.50;99.90;;;;;;5076897;28;21197;-62
2022/10/25 04:16:35;;;;;;;24.37;7.83;;;;;;;;;;5074311;28;20548;-62
2022/10/25 04:19:02;;;;;;;16.17;6.07;;;14.40;99.90;;;;;;5075270;28;20471;-62
2022/10/25 04:21:30;;;;;;;21.33;6.50;;;14.30;99.90;;;;;;5070136;28;20477;-62
2022/10/25 04:23:57;;;;;;;14.57;7.20;;;14.40;99.90;;;;;;5091247;28;20486;-62
2022/10/25 04:26:24;;;;;;;34.13;9.13;;;;;;;;;;5074337;28;20988;-63
2022/10/25 04:28:52;;;;;;;26.07;4.67;;;14.30;99.90;;;;;;5076289;28;20452;-63
2022/10/25 04:31:20;;;;;;;18.67;7.03;;;14.30;99.90;;;;;;5075831;28;20471;-62
2022/10/25 04:33:48;;;;;;;18.23;5.67;;;14.30;99.90;;;;;;5077669;28;20995;-62
2022/10/25 04:36:15;;;;;;;35.73;7.73;;;14.10;99.90;;;;;;5064385;28;20481;-63
2022/10/25 04:38:43;;;;;;;10.07;3.90;;;14.10;99.90;;;;;;5075198;28;20485;-62
2022/10/25 04:41:10;;;;;;;23.53;9.23;;;14.20;99.90;;;;;;5076873;28;20478;-63
2022/10/25 04:43:37;;;;;;;15.23;4.43;;;14.20;99.90;;;;;;5076170;28;20503;-62
2022/10/25 04:46:04;;;;;;;15.47;8.10;;;14.20;99.90;;;;;;5076118;28;20842;-62
2022/10/25 04:48:30;;;;;;;22.83;5.43;;;14.30;99.90;;;;;;5071529;28;20482;-62
2022/10/25 04:50:59;;;;;;;20.80;5.20;;;14.40;99.90;;;;;;5075080;28;20485;-62
2022/10/25 04:53:25;;;;;;;24.93;7.07;;;14.50;99.90;;;;;;5069754;28;20505;-62
2022/10/25 04:55:58;;;;;;;14.60;5.60;;;14.50;99.90;;;;;;5087229;28;20482;-62
2022/10/25 04:58:25;;;;;;;13.37;6.20;;;14.30;99.90;;;;;;5073167;28;21060;-62
2022/10/25 05:00:52;;;;;;;14.30;6.10;;;14.20;99.90;;;;;;5076520;28;20974;-62
2022/10/25 05:03:19;;;;;;;26.27;8.00;;;14.30;99.90;;;;;;5076809;28;20738;-62
2022/10/25 05:05:46;;;;;;;12.53;5.23;;;14.20;99.90;;;;;;5080090;28;20478;-62
2022/10/25 05:08:13;;;;;;;22.33;9.47;;;16.10;99.90;;;;;;5075142;28;20864;-62
2022/10/25 05:10:40;;;;;;;20.37;4.57;;;14.10;99.90;;;;;;5075700;28;20481;-63
2022/10/25 05:13:08;;;;;;;25.27;10.30;;;14.10;99.90;;;;;;5074692;28;20482;-63
2022/10/25 05:15:35;;;;;;;16.10;5.60;;;14.10;99.90;;;;;;5072767;28;20842;-63
2022/10/25 05:18:02;;;;;;;18.47;6.20;;;14.20;99.90;;;;;;5071848;28;20572;-62
2022/10/25 05:20:29;;;;;;;18.13;6.93;;;;;;;;;;5075276;28;20558;-62
2022/10/25 05:22:56;;;;;;;14.53;6.20;;;14.10;99.90;;;;;;5075345;28;20477;-63
2022/10/25 05:25:23;;;;;;;16.13;6.60;;;14.20;99.90;;;;;;5077988;28;20493;-63
2022/10/25 05:27:49;;;;;;;17.87;6.40;;;14.20;99.90;;;;;;5064183;28;21158;-62
2022/10/25 05:30:18;;;;;;;30.53;10.90;;;14.10;99.90;;;;;;5084186;28;20492;-62
2022/10/25 05:32:44;;;;;;;24.83;4.10;;;14.20;99.90;;;;;;5076731;28;20505;-64
2022/10/25 05:35:11;;;;;;;43.73;9.90;;;;;;;;;;5074082;28;20857;-63
2022/10/25 05:37:38;;;;;;;15.00;5.90;;;14.30;99.90;;;;;;5065575;28;20485;-63
2022/10/25 05:40:06;;;;;;;16.63;8.80;;;14.20;99.90;;;;;;5074357;28;21257;-63
2022/10/25 05:42:33;;;;;;;18.77;6.20;;;14.20;99.90;;;;;;5059007;28;20486;-63
2022/10/25 05:44:59;;;;;;;14.53;4.90;;;14.30;99.90;;;;;;5064678;28;20494;-63
2022/10/25 05:47:27;;;;;;;11.57;6.00;;;14.30;99.90;;;;;;5084191;28;20482;-63
2022/10/25 05:49:54;;;;;;;15.80;6.50;;;14.30;99.90;;;;;;5066230;28;20474;-62
2022/10/25 05:52:21;;;;;;;12.40;5.77;;;14.30;99.90;;;;;;5087582;28;20964;-63
2022/10/25 05:54:48;;;;;;;9.23;3.73;;;14.30;99.90;;;;;;5071927;28;20997;-62
2022/10/25 05:57:14;;;;;;;26.50;8.67;;;14.30;99.90;;;;;;5069811;28;20477;-62
2022/10/25 05:59:41;;;;;;;20.13;6.10;;;14.30;99.90;;;;;;5082607;28;20496;-62
2022/10/25 06:02:09;;;;;;;27.80;10.87;;;14.20;99.90;;;;;;5062563;28;20532;-62
2022/10/25 06:04:37;;;;;;;8.90;5.10;;;14.20;99.90;;;;;;5085026;28;20469;-62
2022/10/25 06:07:04;;;;;;;35.37;8.93;;;14.30;99.90;;;;;;5064029;28;20466;-62
2022/10/25 06:09:31;;;;;;;34.57;6.23;;;14.40;99.90;;;;;;5074443;28;20482;-62
2022/10/25 06:11:57;;;;;;;31.00;5.80;;;14.50;99.90;;;;;;5073389;28;21031;-63
2022/10/25 06:14:24;;;;;;;25.93;7.10;;;14.40;99.90;;;;;;5072028;28;20540;-63
2022/10/25 06:16:51;;;;;;;16.83;6.00;;;14.40;99.90;;;;;;5072325;28;20474;-63
2022/10/25 06:19:18;;;;;;;29.03;10.43;;;;;;;;;;5068494;28;20473;-62
2022/10/25 06:21:46;;;;;;;24.57;4.83;;;14.40;99.90;;;;;;5074024;28;20463;-62
2022/10/25 06:24:13;;;;;;;44.13;8.20;;;14.50;99.90;;;;;;5073053;28;21232;-62
2022/10/25 06:26:40;;;;;;;31.17;7.33;;;;;;;;;;5074315;28;20487;-62
2022/10/25 06:29:07;;;;;;;24.33;8.80;;;14.50;99.90;;;;;;5073526;28;20490;-62
2022/10/25 06:31:34;;;;;;;45.00;6.80;;;;;;;;;;5070771;28;20509;-63
2022/10/25 06:34:02;;;;;;;23.13;6.37;;;14.30;99.90;;;;;;5073563;28;20474;-62
2022/10/25 06:36:30;;;;;;;35.90;12.50;;;14.30;99.90;;;;;;5071297;28;20983;-62
2022/10/25 06:38:59;;;;;;;19.33;5.43;;;14.30;99.90;;;;;;5075009;28;20547;-62
2022/10/25 06:41:27;;;;;;;28.07;7.70;;;14.30;99.90;;;;;;5075976;28;20482;-62
2022/10/25 06:43:55;;;;;;;25.77;6.87;;;14.30;99.90;;;;;;5077787;28;20470;-62
2022/10/25 06:46:24;;;;;;;33.23;9.60;;;14.20;99.90;;;;;;5069487;28;20542;-63
2022/10/25 06:48:51;;;;;;;27.80;6.97;;;;;;;;;;5069064;28;20470;-63
2022/10/25 06:51:19;;;;;;;20.67;8.17;;;;;;;;;;5068434;28;20475;-62
2022/10/25 06:53:45;;;;;;;26.00;5.00;;;14.40;99.90;;;;;;5066456;28;20540;-63
2022/10/25 06:56:14;;;;;;;35.57;11.37;;;14.40;99.90;;;;;;5068138;28;20482;-62
2022/10/25 06:58:42;;;;;;;26.93;5.90;;;;;;;;;;5072101;28;20493;-63
2022/10/25 07:01:11;;;;;;;36.87;8.80;;;14.40;99.90;;;;;;5072322;28;20478;-62
2022/10/25 07:03:38;;;;;;;18.70;4.83;;;14.40;99.90;;;;;;5056041;28;20489;-62
2022/10/25 07:06:06;;;;;;;33.60;9.20;;;;;;;;;;5076612;28;20489;-62
2022/10/25 07:08:33;;;;;;;17.23;5.50;;;14.50;99.90;;;;;;5063514;28;21049;-62
2022/10/25 07:11:00;;;;;;;27.10;7.10;;;14.40;99.90;;;;;;5067780;28;20481;-63
2022/10/25 07:13:29;;;;;;;26.50;9.30;;;14.40;99.90;;;;;;5070913;28;20478;-63
2022/10/25 07:16:02;;;;;;;28.00;6.77;;;14.40;99.90;;;;;;5069814;28;20522;-62
2022/10/25 07:18:29;;;;;;;21.10;6.17;;;14.50;99.90;;;;;;5063060;28;20577;-63
2022/10/25 07:20:58;;;;;;;31.73;6.20;;;14.50;99.90;;;;;;5062514;28;20487;-63
2022/10/25 07:23:25;;;;;;;20.83;7.23;;;14.50;99.90;;;;;;5076949;28;20481;-63
2022/10/25 07:25:52;;;;;;;29.47;7.27;;;14.60;99.90;;;;;;5073073;28;20481;-63
2022/10/25 07:28:19;;;;;;;30.90;8.57;;;11.20;99.90;;;;;;5070814;28;20481;-62
2022/10/25 07:30:47;;;;;;;23.73;6.60;;;14.60;99.90;;;;;;5073795;28;20973;-62
2022/10/25 07:33:15;;;;;;;32.03;9.27;;;;;;;;;;5072535;28;20467;-62
2022/10/25 07:35:45;;;;;;;23.33;4.80;;;;;;;;;;5069376;28;20490;-61
2022/10/25 07:38:12;;;;;;;34.07;9.23;;;14.90;99.90;;;;;;5073602;28;20498;-62
2022/10/25 07:40:38;;;;;;;18.00;5.47;;;15.00;99.90;;;;;;5080517;28;21175;-62
2022/10/25 07:43:05;;;;;;;34.17;7.40;;;15.00;99.90;;;;;;5075105;28;20466;-62
2022/10/25 07:45:32;;;;;;;32.47;7.60;;;15.00;99.90;;;;;;5070618;28;20479;-63
2022/10/25 07:48:00;;;;;;;39.63;9.30;;;15.00;99.90;;;;;;5071631;28;20485;-62
2022/10/25 07:50:27;;;;;;;24.97;6.77;;;15.00;99.90;;;;;;5072389;28;20481;-63
2022/10/25 07:52:56;;;;;;;21.10;5.80;;;;;;;;;;5074231;28;20482;-63
2022/10/25 07:55:23;;;;;;;28.63;7.60;;;15.10;99.90;;;;;;5062247;28;20474;-63
2022/10/25 07:57:50;;;;;;;45.97;8.90;;;15.10;99.90;;;;;;5080093;28;20493;-63
2022/10/25 08:00:17;;;;;;;36.63;10.83;;;;;;;;;;5073828;28;20965;-63
2022/10/25 08:02:44;;;;;;;30.13;5.07;;;15.10;99.90;;;;;;5072198;28;20750;-62
2022/10/25 08:05:12;;;;;;;38.83;7.43;;;15.20;99.90;;;;;;5071167;28;20453;-62
2022/10/25 08:07:39;;;;;;;24.17;5.80;;;15.20;99.90;;;;;;5065420;28;20985;-62
2022/10/25 08:10:06;;;;;;;26.03;9.80;;;15.20;99.90;;;;;;5079769;28;20901;-62
2022/10/25 08:12:32;;;;;;;29.07;6.67;;;15.20;99.90;;;;;;5069114;28;20481;-62
2022/10/25 08:15:00;;;;;;;26.93;7.10;;;;;;;;;;5081297;28;20483;-63
2022/10/25 08:17:26;;;;;;;34.43;8.67;;;15.20;99.90;;;;;;5072451;28;20839;-63
2022/10/25 08:19:53;;;;;;;24.13;5.47;;;15.20;99.90;;;;;;5064518;28;21402;-63
2022/10/25 08:22:21;;;;;;;17.60;4.43;;;15.80;99.90;;;;;;5088932;28;20485;-62
2022/10/25 08:24:48;;;;;;;17.53;5.70;;;15.30;99.90;;;;;;5083158;28;20469;-62
2022/10/25 08:27:15;;;;;;;34.80;9.47;;;;;;;;;;5073542;28;20482;-62
2022/10/25 08:29:42;;;;;;;19.00;5.63;;;15.40;99.90;;;;;;5071551;28;20496;-62
2022/10/25 08:32:09;;;;;;;32.50;11.03;;;15.50;99.90;;;;;;5090230;28;20485;-62
2022/10/25 08:34:36;;;;;;;21.53;5.90;;;15.60;99.90;;;;;;5079630;28;20485;-62
2022/10/25 08:37:03;;;;;;;26.20;7.63;;;15.60;99.90;;;;;;5068424;28;20478;-61
2022/10/25 08:39:31;;;;;;;28.30;6.83;;;15.70;99.90;;;;;;5068471;28;20493;-62
2022/10/25 08:41:59;;;;;;;34.47;5.77;;;15.60;99.90;;;;;;5072128;28;20482;-62
2022/10/25 08:44:44;;;;;;;20.97;5.80;;;15.70;99.90;;;;;;5074910;28;20484;-62
2022/10/25 08:47:15;;;;;;;27.40;7.83;;;15.70;99.90;;;;;;5058647;28;20975;-63
2022/10/25 08:49:50;;;;;;;29.30;6.57;;;15.80;99.90;;;;;;5070671;28;20478;-63
2022/10/25 08:52:21;;;;;;;23.73;7.53;;;15.80;99.90;;;;;;5070579;28;20484;-62
2022/10/25 08:54:50;;;;;;;23.87;7.27;;;15.80;99.90;;;;;;5076095;28;20494;-62
2022/10/25 08:57:23;;;;;;;48.47;10.93;;;15.70;99.90;;;;;;5072722;28;20482;-62
2022/10/25 08:59:51;;;;;;;25.27;5.20;;;;;;;;;;5076139;28;20489;-63
2022/10/25 09:02:21;;;;;;;28.60;9.23;;;;;;;;;;5074047;28;20478;-63
2022/10/25 09:04:48;;;;;;;23.00;6.43;;;15.70;99.90;;;;;;5063771;28;20482;-62
2022/10/25 09:07:36;;;;;;;25.40;9.80;;;15.70;99.90;;;;;;5085966;28;20482;-63
2022/10/25 09:10:15;;;;;;;27.07;6.27;;;15.90;99.90;;;;;;5064077;28;20818;-63
2022/10/25 09:12:47;;;;;;;28.70;6.00;;;13.00;99.90;;;;;;5061735;28;20482;-63
2022/10/25 09:15:17;;;;;;;26.73;9.50;;;;;;;;;;5062122;28;20974;-62
2022/10/25 09:17:49;;;;;;;15.27;4.13;;;;;;;;;;5061245;28;20466;-63
2022/10/25 09:20:19;;;;;;;32.33;7.83;;;;;;;;;;5058804;28;20474;-63
2022/10/25 09:22:48;;;;;;;36.07;5.63;;;18.00;99.90;;;;;;5055572;28;20482;-63
2022/10/25 09:25:21;;;;;;;27.87;7.93;;;16.60;99.90;;;;;;5076619;28;20483;-63
2022/10/25 09:27:52;;;;;;;27.57;7.73;;;;;;;;;;5054053;28;20445;-62
2022/10/25 09:30:19;;;;;;;21.23;7.73;;;16.90;99.90;;;;;;5061993;28;20485;-63
2022/10/25 09:32:48;;;;;;;22.77;6.13;;;16.90;99.90;;;;;;5079088;28;20463;-63
2022/10/25 09:35:20;;;;;;;31.03;7.47;;;17.00;99.90;;;;;;5077037;28;20856;-63
2022/10/25 09:37:49;;;;;;;27.93;5.20;;;17.30;99.90;;;;;;5069343;28;20494;-63
2022/10/25 09:40:18;;;;;;;25.53;8.33;;;;;;;;;;5064972;28;21005;-63
2022/10/25 09:42:50;;;;;;;20.93;5.20;;;17.60;99.90;;;;;;5065404;28;20490;-63
2022/10/25 09:45:20;;;;;;;26.00;8.20;;;;;;;;;;5066441;28;20486;-62
2022/10/25 09:47:54;;;;;;;18.63;7.13;;;17.80;99.90;;;;;;5064485;28;20472;-62
2022/10/25 09:50:26;;;;;;;26.57;6.67;;;17.90;99.90;;;;;;5067634;28;20474;-63
2022/10/25 09:53:01;;;;;;;24.93;5.90;;;17.80;99.90;;;;;;5073660;28;20474;-62
2022/10/25 09:55:38;;;;;;;24.37;6.77;;;17.90;99.90;;;;;;5060853;28;20509;-62
2022/10/25 09:58:07;;;;;;;28.43;5.93;;;;;;;;;;5057660;28;21005;-62
2022/10/25 10:00:37;;;;;;;28.93;5.23;;;;;;;;;;5068925;28;20506;-62
2022/10/25 10:03:04;;;;;;;37.67;9.83;;;18.00;99.90;;;;;;5061347;28;20886;-62
2022/10/25 10:05:32;;;;;;;30.30;7.07;;;17.90;99.90;;;;;;5056462;28;20493;-62
2022/10/25 10:07:59;;;;;;;27.17;5.67;;;17.90;99.90;;;;;;5071441;28;20483;-63
2022/10/25 10:10:29;;;;;;;36.83;8.87;;;;;;;;;;5070804;28;20641;-62
2022/10/25 10:13:01;;;;;;;24.07;6.87;;;17.90;99.90;;;;;;5068618;28;20479;-62
2022/10/25 10:15:35;;;;;;;23.73;5.73;;;17.90;99.90;;;;;;5071170;28;20490;-62
2022/10/25 10:18:23;;;;;;;34.47;6.20;;;17.90;99.90;;;;;;5068839;28;20470;-63
2022/10/25 10:21:08;;;;;;;30.70;6.20;;;;;;;;;;5064986;28;20481;-62
2022/10/25 10:23:45;;;;;;;20.27;5.20;;;;;;;;;;5079159;28;20473;-62
2022/10/25 10:26:15;;;;;;;44.00;9.83;;;;;;;;;;5069978;28;20514;-62
2022/10/25 10:28:46;;;;;;;28.40;5.60;;;18.30;99.90;;;;;;5070223;28;20473;-63
2022/10/25 10:31:14;;;;;;;29.97;10.73;;;18.30;99.90;;;;;;5076659;28;20477;-63
2022/10/25 10:33:48;;;;;;;29.60;6.37;;;17.00;99.90;;;;;;5061663;28;20469;-63
2022/10/25 10:36:25;;;;;;;38.60;7.80;;;;;;;;;;5065771;28;20982;-63
2022/10/25 10:38:52;;;;;;;26.13;6.87;;;;;;;;;;5070236;28;21125;-63
2022/10/25 10:41:26;;;;;;;30.80;7.77;;;18.60;99.90;;;;;;5068704;28;20478;-63
2022/10/25 10:44:09;;;;;;;35.43;8.40;;;18.70;99.90;;;;;;5062886;28;21020;-64
2022/10/25 10:46:43;;;;;;;22.80;6.87;;;18.90;99.90;;;;;;5067848;28;21952;-63
2022/10/25 10:49:10;;;;;;;31.17;8.77;;;;;;;;;;5071225;28;21002;-64
2022/10/25 10:51:40;;;;;;;21.93;5.57;;;19.20;99.90;;;;;;5061665;28;20486;-63
2022/10/25 10:54:22;;;;;;;35.83;6.77;;;;;;;;;;5086149;28;20807;-64
2022/10/25 10:56:54;;;;;;;23.67;5.63;;;19.20;99.90;;;;;;5064660;28;20996;-63
2022/10/25 10:59:28;;;;;;;23.83;5.67;;;19.20;99.90;;;;;;5073084;28;20486;-62
2022/10/25 11:01:57;;;;;;;18.43;5.87;;;;;;;;;;5067829;28;20974;-63
2022/10/25 11:04:23;;;;;;;27.97;5.47;;;19.30;99.90;;;;;;5068196;28;20906;-63
2022/10/25 11:06:50;;;;;;;30.03;5.17;;;19.20;99.90;;;;;;5074368;28;20880;-63
2022/10/25 11:09:23;;;;;;;44.23;10.53;;;19.20;99.90;;;;;;5070221;28;20461;-62
2022/10/25 11:12:05;;;;;;;26.03;6.70;;;19.10;99.90;;;;;;5074400;28;20483;-63
2022/10/25 11:14:33;;;;;;;30.20;7.40;;;;;;;;;;5069136;28;20479;-63
2022/10/25 11:17:06;;;;;;;17.77;5.63;;;18.90;99.90;;;;;;5071620;28;20481;-62
2022/10/25 11:19:40;;;;;;;18.17;5.23;;;;;;;;;;5072269;28;20471;-64
2022/10/25 11:22:30;;;;;;;22.17;7.80;;;18.70;99.90;;;;;;5070068;28;20622;-62
2022/10/25 11:25:03;;;;;;;34.50;6.50;;;;;;;;;;5071965;28;20851;-63
2022/10/25 11:27:40;;;;;;;30.77;7.37;;;19.10;99.90;;;;;;5070781;28;20517;-63
2022/10/25 11:30:14;;;;;;;28.93;7.87;;;19.30;99.90;;;;;;5065081;28;20849;-63
2022/10/25 11:33:15;;;;;;;21.50;4.50;;;19.00;99.90;;;;;;5062775;28;21141;-64
2022/10/25 11:35:54;;;;;;;22.87;6.40;;;19.70;99.90;;;;;;5062304;28;20492;-63
2022/10/25 11:38:31;;;;;;;20.23;4.43;;;19.90;99.70;;;;;;5070089;28;20551;-63
2022/10/25 11:41:06;;;;;;;23.70;5.97;;;20.00;99.60;;;;;;5074058;28;20814;-63
2022/10/25 11:43:50;;;;;;;19.97;4.50;;;20.20;99.80;;;;;;5076857;28;20478;-63
2022/10/25 11:46:22;;;;;;;26.77;8.70;;;;;;;;;;5064833;28;20481;-63
2022/10/25 11:49:07;;;;;;;11.23;3.73;;;20.30;99.40;;;;;;5077074;28;20813;-64
2022/10/25 11:51:44;;;;;;;23.07;7.13;;;20.30;99.50;;;;;;5071232;28;20908;-63
2022/10/25 11:54:22;;;;;;;24.93;7.77;;;20.60;99.90;;;;;;5076179;28;20460;-63
2022/10/25 11:57:00;;;;;;;22.00;6.83;;;20.80;99.90;;;;;;5068106;28;20493;-63
2022/10/25 11:59:37;;;;;;;15.10;6.30;;;21.00;99.00;;;;;;5061787;28;20481;-63
2022/10/25 12:02:22;;;;;;;7.67;4.90;;;20.90;98.30;;;;;;5076859;28;20478;-63
2022/10/25 12:05:11;;;;;;;15.33;6.33;;;20.90;99.90;;;;;;5058603;28;20480;-63
2022/10/25 12:07:45;;;;;;;23.33;6.37;;;20.90;98.20;;;;;;5079329;28;20480;-64
2022/10/25 12:10:21;;;;;;;20.27;6.33;;;21.00;98.40;;;;;;5072432;28;20463;-64
2022/10/25 12:12:54;;;;;;;10.57;4.50;;;21.10;97.90;;;;;;5081878;28;20485;-64
2022/10/25 12:15:26;;;;;;;22.83;6.50;;;21.10;98.50;;;;;;5079642;28;20459;-63
2022/10/25 12:17:54;;;;;;;13.33;5.03;;;21.20;98.00;;;;;;5074303;28;20475;-63
2022/10/25 12:20:26;;;;;;;11.97;3.20;;;21.30;98.00;;;;;;5064821;28;20507;-64
2022/10/25 12:22:56;;;;;;;17.23;5.10;;;21.50;98.60;;;;;;5080685;28;20470;-65
2022/10/25 12:25:27;;;;;;;16.03;5.63;;;21.50;97.80;;;;;;5071742;28;20461;-64
2022/10/25 12:28:03;;;;;;;11.50;5.80;;;21.40;98.00;;;;;;5077326;28;20481;-64
2022/10/25 12:30:31;;;;;;;11.07;6.23;;;21.40;97.40;;;;;;5073520;28;20476;-64
2022/10/25 12:33:04;;;;;;;12.20;4.07;;;21.20;97.10;;;;;;5070482;28;20484;-64
2022/10/25 12:35:39;;;;;;;6.43;4.47;;;21.10;97.00;;;;;;5069331;28;20876;-64
2022/10/25 12:38:12;;;;;;;17.30;4.93;;;21.00;97.90;;;;;;5079324;28;20585;-64
2022/10/25 12:40:44;;;;;;;9.57;3.37;;;21.30;97.30;;;;;;5058844;28;20481;-64
2022/10/25 12:43:16;;;;;;;5.27;2.10;;;21.50;97.10;;;;;;5081695;28;20497;-64
2022/10/25 12:46:20;;;;;;;7.63;2.60;;;21.50;96.90;;;;;;5060721;28;20942;-64
2022/10/25 12:49:12;;;;;;;5.33;2.23;;;21.10;95.70;;;;;;5082007;28;20482;-64
2022/10/25 12:51:53;;;;;;;6.43;2.90;;;21.30;96.80;;;;;;5064903;28;20985;-64
2022/10/25 12:54:43;;;;;;;9.80;4.10;;;21.10;95.90;;;;;;5071683;28;20460;-64
2022/10/25 12:57:19;;;;;;;10.43;2.70;;;21.20;97.20;;;;;;5066200;28;20739;-64
2022/10/25 13:00:00;;;;;;;10.30;3.00;;;21.30;97.00;;;;;;5075639;28;20493;-64
2022/10/25 13:03:04;;;;;;;7.97;2.97;;;21.30;96.80;;;;;;5075292;28;20481;-63
2022/10/25 13:05:53;;;;;;;9.40;3.43;;;21.50;96.90;;;;;;5076025;28;20485;-64
2022/10/25 13:08:24;;;;;;;17.13;3.43;;;21.70;97.80;;;;;;5074289;28;21344;-64
2022/10/25 13:10:58;;;;;;;4.40;2.63;;;21.80;96.90;;;;;;5074817;28;21017;-64
2022/10/25 13:13:27;;;;;;;5.00;2.40;;;22.00;97.20;;;;;;5064493;28;20475;-64
2022/10/25 13:15:56;;;;;;;13.03;2.43;;;;;;;;;;5076079;28;20815;-64
2022/10/25 13:18:41;;;;;;;6.27;2.67;;;22.00;96.20;;;;;;5070573;28;20746;-64
2022/10/25 13:21:10;;;;;;;18.30;3.20;;;19.10;95.30;;;;;;5081216;28;21221;-64
2022/10/25 13:23:58;;;;;;;2.90;1.80;;;21.60;96.40;;;;;;5072642;28;20998;-63
2022/10/25 13:26:29;;;;;;;13.30;2.87;;;21.60;96.30;;;;;;5072918;28;20543;-63
2022/10/25 13:28:57;;;;;;;7.70;2.43;;;21.60;96.20;;;;;;5073925;28;20473;-64
2022/10/25 13:31:57;;;;;;;9.37;2.37;;;21.60;95.90;;;;;;5079517;28;21307;-64
2022/10/25 13:34:44;;;;;;;4.20;2.00;;;21.60;96.50;;;;;;5075849;28;20821;-64
2022/10/25 13:37:40;;;;;;;4.80;1.90;;;21.70;96.60;;;;;;5068488;28;20465;-64
2022/10/25 13:40:21;;;;;;;12.57;1.63;;;22.00;97.90;;;;;;5063953;28;20461;-64
2022/10/25 13:42:57;;;;;;;7.30;2.00;;;22.40;95.90;;;;;;5073168;28;20461;-64
2022/10/25 13:45:32;;;;;;;17.03;2.53;;;22.70;96.00;;;;;;5075947;28;20472;-64
2022/10/25 13:48:10;;;;;;;4.03;1.33;;;22.90;94.30;;;;;;5071411;28;20788;-64
2022/10/25 13:50:43;;;;;;;6.57;1.40;;;22.90;93.50;;;;;;5062636;28;20768;-64
2022/10/25 13:53:17;;;;;;;13.60;2.20;;;22.90;95.20;;;;;;5074876;28;20836;-64
2022/10/25 13:55:53;;;;;;;9.00;1.80;;;23.00;95.20;;;;;;5075135;28;20661;-64
2022/10/25 13:58:43;;;;;;;3.60;1.60;;;23.00;93.20;;;;;;5072548;28;20452;-64
2022/10/25 14:01:58;;;;;;;8.90;1.60;;;22.90;93.00;;;;;;5074291;28;21146;-64
2022/10/25 14:04:39;;;;;;;2.20;1.40;;;22.30;93.70;;;;;;5072307;28;20468;-63
2022/10/25 14:07:44;;;;;;;7.90;1.40;;;22.10;94.30;;;;;;5068810;28;20824;-63
2022/10/25 14:10:19;;;;;;;7.60;1.60;;;22.30;94.70;;;;;;5073209;28;20499;-63
2022/10/25 14:12:49;;;;;;;7.23;1.47;;;22.20;94.80;;;;;;5067613;28;20516;-64
2022/10/25 14:15:18;;;;;;;10.03;1.80;;;;;;;;;;5064596;28;20494;-63
2022/10/25 14:17:45;;;;;;;7.50;1.40;;;21.90;94.60;;;;;;5062345;28;20446;-64
2022/10/25 14:20:24;;;;;;;6.43;1.70;;;21.70;95.00;;;;;;5068441;28;20470;-63